createdAt,value
2018-03-18T00:02:11.106Z,8.25
2018-03-18T00:04:42.515Z,9.23
2018-03-18T00:07:13.520Z,13.20
2018-03-18T00:09:43.454Z,10.63
2018-03-18T00:12:14.415Z,7.83
2018-03-18T00:14:45.659Z,9.90
2018-03-18T00:17:16.276Z,11.38
2018-03-18T00:19:46.477Z,8.67
2018-03-18T00:22:17.353Z,7.33
2018-03-18T00:24:49.009Z,8.67
2018-03-18T00:27:19.189Z,7.85
2018-03-18T00:29:50.009Z,11.55
2018-03-18T00:32:19.740Z,14.00
2018-03-18T00:34:50.342Z,8.52
2018-03-18T00:37:20.478Z,7.37
2018-03-18T00:39:50.229Z,12.70
2018-03-18T00:42:21.015Z,8.00
2018-03-18T00:44:51.055Z,13.30
2018-03-18T00:47:21.394Z,8.20
2018-03-18T00:49:51.247Z,7.62
2018-03-18T00:52:21.994Z,8.83
2018-03-18T00:54:51.901Z,8.23
2018-03-18T00:57:21.984Z,7.10
2018-03-18T00:59:53.075Z,8.82
2018-03-18T01:02:23.078Z,11.20
2018-03-18T01:04:54.060Z,9.23
2018-03-18T01:07:25.334Z,10.43
2018-03-18T01:09:56.040Z,12.83
2018-03-18T01:12:27.835Z,10.90
2018-03-18T01:14:58.907Z,10.73
2018-03-18T01:17:29.458Z,12.95
2018-03-18T01:19:59.666Z,12.20
2018-03-18T01:22:29.728Z,7.93
2018-03-18T01:24:59.732Z,11.17
2018-03-18T01:27:29.809Z,9.33
2018-03-18T01:30:00.584Z,13.70
2018-03-18T01:32:30.939Z,8.73
2018-03-18T01:35:02.003Z,11.13
2018-03-18T01:37:32.293Z,9.25
2018-03-18T01:40:02.368Z,8.75
2018-03-18T01:42:32.710Z,11.70
2018-03-18T01:45:02.675Z,9.87
2018-03-18T01:47:33.847Z,12.70
2018-03-18T01:50:04.075Z,10.30
2018-03-18T01:52:34.399Z,11.17
2018-03-18T01:55:04.581Z,15.63
2018-03-18T01:57:35.782Z,10.50
2018-03-18T02:00:06.007Z,11.80
2018-03-18T02:02:36.017Z,9.30
2018-03-18T02:05:07.607Z,9.63
2018-03-18T02:07:38.715Z,11.77
2018-03-18T02:10:08.531Z,9.77
2018-03-18T02:12:39.135Z,10.73
2018-03-18T02:15:09.188Z,12.80
2018-03-18T02:17:39.200Z,13.43
2018-03-18T02:20:09.239Z,11.83
2018-03-18T02:22:39.533Z,15.95
2018-03-18T02:25:10.580Z,16.33
2018-03-18T02:27:40.397Z,11.87
2018-03-18T02:30:10.252Z,18.73
2018-03-18T02:32:40.869Z,11.60
2018-03-18T02:35:12.056Z,19.30
2018-03-18T02:37:43.469Z,12.73
2018-03-18T02:40:13.514Z,14.20
2018-03-18T02:42:43.844Z,13.23
2018-03-18T02:45:14.569Z,12.60
2018-03-18T02:47:45.112Z,14.50
2018-03-18T02:50:15.231Z,14.20
2018-03-18T02:52:45.062Z,13.62
2018-03-18T02:55:15.256Z,14.20
2018-03-18T02:57:45.970Z,13.13
2018-03-18T03:00:16.219Z,13.20
2018-03-18T03:02:47.102Z,16.17
2018-03-18T03:05:17.405Z,14.17
2018-03-18T03:07:48.448Z,16.20
2018-03-18T03:10:19.088Z,13.77
2018-03-18T03:12:49.701Z,20.40
2018-03-18T03:15:19.756Z,16.03
2018-03-18T03:17:52.857Z,15.17
2018-03-18T03:20:24.420Z,12.80
2018-03-18T03:22:55.207Z,12.25
2018-03-18T03:25:25.286Z,17.90
2018-03-18T03:27:55.593Z,15.13
2018-03-18T03:30:25.790Z,13.80
2018-03-18T03:32:55.821Z,14.80
2018-03-18T03:35:25.731Z,12.37
2018-03-18T03:37:56.045Z,14.60
2018-03-18T03:40:26.065Z,12.47
2018-03-18T03:42:57.981Z,12.43
2018-03-18T03:45:29.087Z,14.90
2018-03-18T03:47:59.585Z,15.33
2018-03-18T03:50:29.463Z,14.10
2018-03-18T03:52:59.590Z,12.13
2018-03-18T03:55:30.109Z,18.85
2018-03-18T03:58:01.180Z,17.43
2018-03-18T04:00:31.008Z,11.53
2018-03-18T04:03:00.809Z,20.98
2018-03-18T04:05:31.483Z,14.70
2018-03-18T04:08:02.395Z,15.77
2018-03-18T04:10:33.729Z,13.70
2018-03-18T04:13:04.278Z,12.07
2018-03-18T04:15:35.583Z,14.85
2018-03-18T04:18:06.266Z,12.90
2018-03-18T04:20:37.400Z,14.90
2018-03-18T04:23:08.774Z,13.00
2018-03-18T04:25:39.951Z,13.80
2018-03-18T04:28:11.022Z,12.53
2018-03-18T04:30:41.252Z,14.77
2018-03-18T04:33:11.797Z,12.93
2018-03-18T04:35:42.462Z,12.73
2018-03-18T04:38:13.008Z,13.43
2018-03-18T04:40:44.383Z,12.83
2018-03-18T04:43:14.604Z,13.57
2018-03-18T04:45:44.806Z,14.80
2018-03-18T04:48:14.527Z,15.63
2018-03-18T04:50:45.921Z,14.95
2018-03-18T04:53:17.026Z,17.77
2018-03-18T04:55:47.319Z,17.00
2018-03-18T04:58:17.478Z,16.53
2018-03-18T05:00:47.765Z,17.83
2018-03-18T05:03:17.810Z,15.87
2018-03-18T05:05:48.658Z,17.20
2018-03-18T05:08:18.798Z,17.27
2018-03-18T05:10:49.806Z,17.33
2018-03-18T05:13:20.024Z,16.33
2018-03-18T05:15:50.098Z,17.60
2018-03-18T05:18:20.589Z,18.00
2018-03-18T05:20:50.939Z,19.40
2018-03-18T05:23:21.966Z,17.30
2018-03-18T05:25:52.798Z,20.27
2018-03-18T05:28:22.782Z,17.27
2018-03-18T05:30:53.130Z,16.30
2018-03-18T05:33:23.165Z,20.20
2018-03-18T05:35:53.516Z,15.07
2018-03-18T05:38:24.689Z,19.10
2018-03-18T05:40:55.042Z,16.40
2018-03-18T05:43:25.902Z,18.23
2018-03-18T05:45:56.874Z,14.87
2018-03-18T05:48:26.977Z,15.73
2018-03-18T05:50:57.971Z,15.70
2018-03-18T05:53:27.754Z,15.40
2018-03-18T05:55:57.969Z,15.27
2018-03-18T05:58:28.124Z,14.90
2018-03-18T06:00:58.086Z,14.63
2018-03-18T06:03:28.294Z,15.15
2018-03-18T06:05:58.726Z,15.23
2018-03-18T06:08:30.238Z,13.53
2018-03-18T06:11:01.835Z,13.60
2018-03-18T06:13:32.223Z,13.50
2018-03-18T06:16:02.781Z,14.40
2018-03-18T06:18:33.705Z,15.57
2018-03-18T06:21:03.889Z,16.13
2018-03-18T06:23:34.093Z,17.63
2018-03-18T06:26:03.816Z,16.53
2018-03-18T06:28:34.281Z,15.90
2018-03-18T06:31:03.977Z,17.40
2018-03-18T06:33:33.918Z,14.87
2018-03-18T06:36:04.013Z,14.07
2018-03-18T06:38:34.439Z,15.23
2018-03-18T06:41:04.675Z,13.83
2018-03-18T06:43:34.921Z,14.50
2018-03-18T06:46:06.002Z,15.40
2018-03-18T06:48:35.814Z,14.37
2018-03-18T06:51:06.184Z,14.20
2018-03-18T06:53:36.494Z,13.80
2018-03-18T06:56:06.620Z,14.53
2018-03-18T06:58:38.688Z,13.20
2018-03-18T07:01:08.887Z,15.23
2018-03-18T07:03:39.122Z,13.23
2018-03-18T07:06:09.478Z,16.77
2018-03-18T07:08:40.398Z,16.00
2018-03-18T07:11:10.680Z,17.23
2018-03-18T07:13:40.880Z,21.20
2018-03-18T07:16:11.128Z,18.92
2018-03-18T07:18:41.129Z,16.70
2018-03-18T07:21:11.485Z,17.57
2018-03-18T07:23:41.699Z,19.63
2018-03-18T07:26:11.942Z,19.07
2018-03-18T07:28:42.249Z,19.70
2018-03-18T07:31:12.480Z,20.73
2018-03-18T07:33:42.818Z,20.87
2018-03-18T07:36:12.946Z,20.47
2018-03-18T07:38:44.022Z,17.53
2018-03-18T07:41:15.194Z,19.23
2018-03-18T07:43:45.628Z,19.57
2018-03-18T07:46:15.954Z,19.47
2018-03-18T07:48:46.287Z,17.50
2018-03-18T07:51:18.075Z,18.57
2018-03-18T07:53:48.584Z,17.63
2018-03-18T07:56:19.003Z,18.37
2018-03-18T07:58:49.023Z,21.47
2018-03-18T08:01:18.722Z,16.60
2018-03-18T08:03:48.842Z,17.83
2018-03-18T08:06:18.876Z,17.37
2018-03-18T08:08:48.823Z,16.33
2018-03-18T08:11:19.759Z,17.23
2018-03-18T08:13:50.271Z,16.50
2018-03-18T08:16:20.907Z,15.90
2018-03-18T08:18:51.573Z,19.30
2018-03-18T08:21:21.263Z,16.90
2018-03-18T08:23:53.521Z,18.70
2018-03-18T08:26:24.718Z,15.97
2018-03-18T08:28:55.168Z,15.00
2018-03-18T08:31:25.664Z,17.40
2018-03-18T08:33:56.186Z,19.37
2018-03-18T08:36:26.388Z,18.40
2018-03-18T08:38:56.481Z,16.70
2018-03-18T08:41:27.912Z,17.40
2018-03-18T08:43:58.377Z,19.55
2018-03-18T08:46:28.940Z,18.90
2018-03-18T08:48:59.349Z,17.47
2018-03-18T08:51:29.742Z,17.70
2018-03-18T08:54:00.916Z,18.58
2018-03-18T08:56:31.300Z,16.27
2018-03-18T08:59:02.934Z,15.57
2018-03-18T09:01:33.666Z,15.53
2018-03-18T09:04:03.872Z,14.07
2018-03-18T09:06:34.689Z,15.47
2018-03-18T09:09:04.920Z,14.93
2018-03-18T09:11:34.797Z,14.20
2018-03-18T09:14:06.062Z,14.00
2018-03-18T09:16:36.918Z,13.05
2018-03-18T09:19:07.560Z,13.13
2018-03-18T09:21:38.733Z,14.32
2018-03-18T09:24:09.774Z,12.37
2018-03-18T09:26:40.619Z,13.40
2018-03-18T09:29:10.705Z,12.57
2018-03-18T09:31:41.119Z,13.03
2018-03-18T09:34:11.035Z,13.80
2018-03-18T09:36:42.232Z,13.27
2018-03-18T09:39:12.430Z,12.03
2018-03-18T09:41:42.765Z,14.80
2018-03-18T09:44:13.534Z,12.13
2018-03-18T09:46:44.014Z,13.80
2018-03-18T09:49:15.059Z,15.10
2018-03-18T09:51:45.350Z,11.87
2018-03-18T09:54:15.793Z,12.43
2018-03-18T09:56:47.821Z,11.23
2018-03-18T09:59:19.522Z,11.20
2018-03-18T10:01:49.394Z,12.40
2018-03-18T10:04:20.179Z,12.30
2018-03-18T10:06:50.478Z,13.20
2018-03-18T10:09:20.358Z,11.97
2018-03-18T10:11:50.280Z,12.27
2018-03-18T10:14:21.088Z,13.90
2018-03-18T10:16:52.018Z,10.60
2018-03-18T10:19:23.776Z,11.07
2018-03-18T10:21:53.534Z,15.90
2018-03-18T10:24:24.302Z,12.80
2018-03-18T10:26:55.760Z,15.63
2018-03-18T10:29:25.894Z,16.73
2018-03-18T10:31:56.129Z,14.93
2018-03-18T10:34:26.523Z,16.30
2018-03-18T10:36:56.965Z,16.80
2018-03-18T10:39:27.225Z,18.37
2018-03-18T10:41:58.482Z,17.50
2018-03-18T10:44:29.101Z,18.17
2018-03-18T10:46:59.311Z,17.67
2018-03-18T10:49:30.818Z,16.73
2018-03-18T10:52:01.553Z,17.27
2018-03-18T10:54:33.738Z,17.47
2018-03-18T10:57:03.596Z,18.23
2018-03-18T10:59:33.930Z,17.63
2018-03-18T11:05:12.510Z,20.27
2018-03-18T11:07:43.606Z,18.90
2018-03-18T11:10:14.408Z,17.07
2018-03-18T11:12:45.636Z,17.58
2018-03-18T11:15:16.162Z,18.20
2018-03-18T11:17:45.878Z,18.08
2018-03-18T11:20:15.654Z,19.60
2018-03-18T11:22:46.243Z,18.08
2018-03-18T11:25:16.792Z,18.97
2018-03-18T11:27:46.923Z,18.40
2018-03-18T11:30:16.614Z,18.93
2018-03-18T11:32:47.527Z,18.40
2018-03-18T11:35:18.194Z,17.87
2018-03-18T11:37:48.465Z,17.58
2018-03-18T11:40:18.559Z,20.90
2018-03-18T11:42:48.346Z,18.47
2018-03-18T11:45:18.700Z,19.30
2018-03-18T11:47:49.137Z,20.03
2018-03-18T11:50:19.466Z,19.17
2018-03-18T11:52:49.472Z,25.58
2018-03-18T11:55:20.443Z,19.43
2018-03-18T11:57:50.726Z,21.50
2018-03-18T12:00:21.150Z,19.10
2018-03-18T12:02:51.565Z,17.60
2018-03-18T12:05:21.683Z,19.10
2018-03-18T12:07:52.222Z,18.97
2018-03-18T12:10:22.319Z,19.80
2018-03-18T12:12:52.481Z,18.12
2018-03-18T12:15:22.737Z,20.27
2018-03-18T12:17:53.682Z,19.53
2018-03-18T12:20:24.168Z,22.43
2018-03-18T12:22:54.190Z,17.93
2018-03-18T12:25:24.592Z,19.03
2018-03-18T12:27:54.741Z,21.00
2018-03-18T12:30:24.692Z,21.50
2018-03-18T12:32:56.813Z,20.00
2018-03-18T12:35:27.567Z,19.20
2018-03-18T12:37:57.770Z,18.50
2018-03-18T12:40:34.028Z,18.57
2018-03-18T12:43:15.864Z,19.12
2018-03-18T12:45:46.977Z,20.13
2018-03-18T12:48:17.146Z,19.25
2018-03-18T12:50:47.161Z,22.90
2018-03-18T12:53:17.318Z,23.93
2018-03-18T12:55:47.507Z,27.57
2018-03-18T12:58:17.258Z,24.03
2018-03-18T13:00:47.290Z,24.03
2018-03-18T13:03:17.512Z,24.50
2018-03-18T13:05:48.004Z,27.77
2018-03-18T13:08:17.740Z,29.67
2018-03-18T13:10:47.445Z,22.60
2018-03-18T13:13:17.927Z,24.57
2018-03-18T13:15:48.440Z,23.90
2018-03-18T13:18:19.221Z,25.50
2018-03-18T13:20:49.469Z,24.17
2018-03-18T13:23:19.525Z,25.77
2018-03-18T13:25:49.687Z,27.62
2018-03-18T13:28:20.067Z,23.90
2018-03-18T13:30:50.350Z,24.50
2018-03-18T13:33:20.535Z,27.13
2018-03-18T13:35:50.906Z,25.53
2018-03-18T13:38:20.692Z,24.20
2018-03-18T13:40:51.067Z,25.85
2018-03-18T13:43:22.192Z,23.73
2018-03-18T13:45:53.518Z,25.50
2018-03-18T13:48:23.875Z,25.63
2018-03-18T13:50:55.231Z,27.77
2018-03-18T13:53:26.431Z,24.58
2018-03-18T13:55:56.702Z,24.20
2018-03-18T13:58:27.639Z,24.70
2018-03-18T14:01:00.486Z,25.40
2018-03-18T14:03:31.437Z,25.37
2018-03-18T14:06:01.666Z,24.37
2018-03-18T14:08:32.185Z,25.33
2018-03-18T14:11:03.374Z,24.25
2018-03-18T14:13:35.440Z,25.05
2018-03-18T14:16:05.540Z,25.58
2018-03-18T14:18:37.300Z,25.80
2018-03-18T14:21:08.308Z,25.98
2018-03-18T14:23:38.096Z,25.60
2018-03-18T14:26:09.402Z,25.97
2018-03-18T14:28:40.924Z,24.57
2018-03-18T14:31:12.707Z,25.70
2018-03-18T14:33:42.729Z,24.23
2018-03-18T14:36:13.532Z,25.60
2018-03-18T14:38:44.599Z,24.87
2018-03-18T14:41:16.772Z,25.30
2018-03-18T14:43:47.879Z,25.20
2018-03-18T14:46:19.692Z,24.13
2018-03-18T14:48:49.804Z,25.37
2018-03-18T14:51:21.548Z,24.17
2018-03-18T14:53:53.526Z,24.80
2018-03-18T14:56:23.859Z,21.67
2018-03-18T14:58:54.570Z,21.30
2018-03-18T15:01:24.344Z,20.13
2018-03-18T15:03:54.526Z,13.57
2018-03-18T15:06:24.971Z,21.40
2018-03-18T15:08:55.066Z,12.10
2018-03-18T15:11:25.978Z,17.85
2018-03-18T15:13:57.846Z,22.37
2018-03-18T15:16:29.162Z,23.27
2018-03-18T15:19:01.083Z,17.15
2018-03-18T15:21:31.357Z,15.32
2018-03-18T15:24:01.519Z,16.30
2018-03-18T15:26:31.586Z,23.75
2018-03-18T15:29:01.356Z,20.73
2018-03-18T15:31:31.209Z,24.70
2018-03-18T15:34:01.637Z,28.07
2018-03-18T15:36:31.733Z,20.55
2018-03-18T15:39:01.846Z,16.50
2018-03-18T15:41:32.194Z,21.02
2018-03-18T15:44:02.400Z,18.95
2018-03-18T15:46:32.642Z,19.50
2018-03-18T15:49:02.777Z,21.58
2018-03-18T15:51:35.641Z,16.45
2018-03-18T15:54:05.964Z,15.27
2018-03-18T15:56:35.726Z,19.95
2018-03-18T15:59:06.855Z,16.05
2018-03-18T16:01:37.768Z,17.13
2018-03-18T16:04:08.669Z,11.73
2018-03-18T16:06:39.549Z,11.45
2018-03-18T16:09:09.704Z,12.20
2018-03-18T16:11:39.588Z,11.23
2018-03-18T16:14:10.624Z,11.40
2018-03-18T16:16:40.816Z,12.95
2018-03-18T16:19:10.586Z,14.80
2018-03-18T16:21:40.602Z,15.20
2018-03-18T16:24:11.711Z,10.80
2018-03-18T16:26:41.441Z,12.88
2018-03-18T16:29:23.029Z,8.05
2018-03-18T16:31:53.558Z,11.30
2018-03-18T16:34:23.678Z,9.87
2018-03-18T16:36:54.178Z,5.43
2018-03-18T16:39:24.527Z,9.63
2018-03-18T16:41:55.375Z,9.90
2018-03-18T16:44:26.618Z,6.63
2018-03-18T16:46:57.177Z,10.40
2018-03-18T16:49:26.883Z,8.15
2018-03-18T16:51:57.159Z,8.40
2018-03-18T16:54:26.849Z,8.73
2018-03-18T16:56:56.591Z,6.33
2018-03-18T16:59:26.412Z,11.87
2018-03-18T17:01:57.522Z,13.13
2018-03-18T17:04:27.742Z,12.82
2018-03-18T17:06:58.742Z,5.83
2018-03-18T17:09:29.083Z,7.30
2018-03-18T17:11:59.233Z,9.50
2018-03-18T17:14:29.346Z,7.40
2018-03-18T17:16:59.557Z,10.67
2018-03-18T17:19:29.690Z,5.97
2018-03-18T17:21:59.901Z,4.85
2018-03-18T17:24:29.960Z,4.70
2018-03-18T17:27:01.064Z,9.52
2018-03-18T17:29:31.462Z,11.83
2018-03-18T17:32:01.682Z,6.73
2018-03-18T17:34:31.888Z,6.77
2018-03-18T17:37:01.581Z,12.02
2018-03-18T17:39:32.616Z,8.77
2018-03-18T17:42:03.342Z,7.37
2018-03-18T17:47:53.635Z,6.37
2018-03-18T17:50:47.103Z,7.50
2018-03-18T17:53:28.979Z,10.15
2018-03-18T17:56:10.487Z,5.93
2018-03-18T17:58:40.877Z,5.17
2018-03-18T18:01:11.159Z,7.35
2018-03-18T18:03:41.961Z,11.23
2018-03-18T18:06:12.015Z,10.63
2018-03-18T18:08:42.814Z,7.18
2018-03-18T18:11:13.091Z,8.53
2018-03-18T18:13:43.270Z,8.87
2018-03-18T18:16:13.889Z,7.93
2018-03-18T18:18:44.056Z,5.00
2018-03-18T18:21:15.086Z,7.20
2018-03-18T18:23:46.090Z,7.10
2018-03-18T18:26:16.090Z,5.18
2018-03-18T18:28:46.260Z,9.55
2018-03-18T18:31:17.354Z,6.97
2018-03-18T18:33:47.695Z,7.22
2018-03-18T18:36:17.948Z,5.67
2018-03-18T18:38:48.668Z,8.03
2018-03-18T18:41:18.639Z,9.80
2018-03-18T18:43:48.985Z,7.37
2018-03-18T18:46:19.323Z,6.93
2018-03-18T18:48:49.492Z,12.40
2018-03-18T18:51:19.921Z,8.23
2018-03-18T18:53:49.751Z,6.55
2018-03-18T18:56:20.062Z,8.60
2018-03-18T18:58:50.276Z,5.97
2018-03-18T19:01:20.617Z,10.50
2018-03-18T19:03:50.738Z,7.80
2018-03-18T19:06:21.158Z,5.50
2018-03-18T19:08:51.303Z,6.60
2018-03-18T19:11:21.339Z,7.75
2018-03-18T19:13:51.678Z,6.87
2018-03-18T19:16:23.058Z,8.68
2018-03-18T19:18:53.434Z,6.50
2018-03-18T19:21:23.547Z,6.80
2018-03-18T19:23:53.828Z,8.63
2018-03-18T19:26:24.248Z,5.37
2018-03-18T19:28:54.603Z,6.17
2018-03-18T19:31:24.767Z,5.57
2018-03-18T19:33:54.850Z,5.60
2018-03-18T19:36:25.311Z,6.90
2018-03-18T19:38:55.615Z,10.63
2018-03-18T19:41:28.235Z,5.33
2018-03-18T19:43:58.766Z,5.33
2018-03-18T19:46:29.253Z,6.37
2018-03-18T19:49:00.083Z,6.17
2018-03-18T19:51:31.510Z,8.40
2018-03-18T19:54:01.488Z,5.43
2018-03-18T19:56:32.678Z,8.60
2018-03-18T19:59:03.849Z,10.10
2018-03-18T20:01:35.228Z,7.87
2018-03-18T20:04:06.672Z,6.73
2018-03-18T20:06:38.069Z,6.90
2018-03-18T20:09:09.733Z,4.80
2018-03-18T20:11:40.380Z,5.20
2018-03-18T20:14:10.167Z,6.07
2018-03-18T20:16:40.061Z,5.07
2018-03-18T20:19:12.221Z,7.20
2018-03-18T20:21:43.445Z,10.80
2018-03-18T20:24:13.506Z,7.62
2018-03-18T20:26:43.703Z,5.70
2018-03-18T20:29:16.583Z,4.83
2018-03-18T20:31:46.963Z,5.70
2018-03-18T20:34:18.570Z,4.90
2018-03-18T20:36:48.686Z,8.37
2018-03-18T20:39:20.460Z,5.12
2018-03-18T20:41:52.592Z,5.93
2018-03-18T20:44:23.579Z,7.53
2018-03-18T20:46:53.910Z,5.20
2018-03-18T20:49:24.079Z,7.25
2018-03-18T20:51:54.925Z,7.73
2018-03-18T20:54:25.210Z,7.40
2018-03-18T20:56:56.816Z,6.93
2018-03-18T20:59:27.168Z,6.73
2018-03-18T21:01:57.668Z,9.57
2018-03-18T21:04:28.366Z,12.53
2018-03-18T21:06:58.581Z,4.87
2018-03-18T21:09:29.175Z,9.65
2018-03-18T21:12:00.015Z,6.80
2018-03-18T21:14:31.395Z,8.90
2018-03-18T21:17:02.349Z,6.90
2018-03-18T21:19:33.585Z,5.22
2018-03-18T21:22:04.463Z,7.90
2018-03-18T21:24:36.701Z,8.98
2018-03-18T21:27:08.101Z,9.20
2018-03-18T21:29:39.725Z,6.00
2018-03-18T21:32:09.712Z,9.67
2018-03-18T21:34:42.642Z,9.37
2018-03-18T21:37:12.471Z,7.23
2018-03-18T21:39:44.070Z,6.10
2018-03-18T21:42:14.082Z,6.37
2018-03-18T21:44:44.971Z,10.70
2018-03-18T21:47:16.573Z,7.40
2018-03-18T21:49:48.616Z,9.60
2018-03-18T21:52:18.809Z,9.50
2018-03-18T21:54:50.135Z,8.80
2018-03-18T21:57:22.348Z,10.43
2018-03-18T21:59:52.797Z,12.00
2018-03-18T22:02:22.878Z,11.07
2018-03-18T22:04:53.107Z,7.00
2018-03-18T22:07:22.827Z,7.55
2018-03-18T22:09:53.219Z,8.17
2018-03-18T22:12:23.498Z,7.17
2018-03-18T22:14:53.927Z,7.20
2018-03-18T22:17:23.821Z,11.35
2018-03-18T22:19:54.382Z,10.07
2018-03-18T22:22:24.200Z,7.97
2018-03-18T22:24:54.478Z,12.07
2018-03-18T22:27:24.472Z,11.77
2018-03-18T22:29:54.772Z,8.70
2018-03-18T22:32:25.305Z,11.60
2018-03-18T22:34:56.390Z,12.43
2018-03-18T22:37:26.535Z,7.68
2018-03-18T22:39:56.754Z,8.87
2018-03-18T22:42:28.650Z,13.93
2018-03-18T22:44:59.608Z,8.10
2018-03-18T22:47:29.966Z,11.20
2018-03-18T22:50:00.107Z,9.10
2018-03-18T22:52:31.259Z,9.37
2018-03-18T22:55:01.243Z,10.95
2018-03-18T22:57:32.811Z,9.27
2018-03-18T23:00:04.691Z,9.37
2018-03-18T23:02:35.059Z,11.40
2018-03-18T23:05:05.010Z,10.47
2018-03-18T23:07:34.828Z,9.23
2018-03-18T23:10:04.746Z,10.73
2018-03-18T23:12:35.126Z,7.90
2018-03-18T23:15:05.150Z,16.23
2018-03-18T23:17:35.308Z,10.57
2018-03-18T23:20:05.573Z,9.83
2018-03-18T23:22:36.100Z,10.17
2018-03-18T23:25:07.126Z,12.53
2018-03-18T23:27:37.387Z,11.07
2018-03-18T23:30:07.533Z,12.60
2018-03-18T23:32:37.997Z,8.37
2018-03-18T23:35:09.840Z,8.27
2018-03-18T23:37:39.997Z,9.13
2018-03-18T23:40:10.858Z,10.43
2018-03-18T23:42:41.099Z,8.97
2018-03-18T23:45:12.024Z,12.43
2018-03-18T23:47:42.055Z,8.07
2018-03-18T23:50:11.947Z,10.50
2018-03-18T23:52:42.345Z,13.80
2018-03-18T23:55:12.753Z,10.10
2018-03-18T23:57:43.661Z,9.30
